sensor_id;sensor_type;location;lat;lon;timestamp;P1;durP1;ratioP1;P2;durP2;ratioP2
14760;SDS011;7472;45.396;5.272;2023-09-19T00:02:26;5.93;;;4.15;;
14760;SDS011;7472;45.396;5.272;2023-09-19T00:04:54;9.48;;;4.00;;
14760;SDS011;7472;45.396;5.272;2023-09-19T00:07:21;8.93;;;4.40;;
14760;SDS011;7472;45.396;5.272;2023-09-19T00:09:49;5.65;;;3.65;;
14760;SDS011;7472;45.396;5.272;2023-09-19T00:12:17;5.18;;;3.45;;
14760;SDS011;7472;45.396;5.272;2023-09-19T00:14:44;6.18;;;4.47;;
14760;SDS011;7472;45.396;5.272;2023-09-19T00:17:14;5.78;;;4.30;;
14760;SDS011;7472;45.396;5.272;2023-09-19T00:19:41;9.00;;;4.75;;
14760;SDS011;7472;45.396;5.272;2023-09-19T00:22:11;8.20;;;4.15;;
14760;SDS011;7472;45.396;5.272;2023-09-19T00:24:40;7.47;;;3.70;;
14760;SDS011;7472;45.396;5.272;2023-09-19T00:27:08;7.00;;;3.83;;
14760;SDS011;7472;45.396;5.272;2023-09-19T00:29:35;7.28;;;4.15;;
14760;SDS011;7472;45.396;5.272;2023-09-19T00:32:03;9.10;;;3.88;;
14760;SDS011;7472;45.396;5.272;2023-09-19T00:34:32;5.13;;;3.90;;
14760;SDS011;7472;45.396;5.272;2023-09-19T00:37:00;8.05;;;3.60;;
14760;SDS011;7472;45.396;5.272;2023-09-19T00:39:28;5.40;;;3.67;;
14760;SDS011;7472;45.396;5.272;2023-09-19T00:41:56;8.48;;;4.47;;
14760;SDS011;7472;45.396;5.272;2023-09-19T00:44:29;8.32;;;3.78;;
14760;SDS011;7472;45.396;5.272;2023-09-19T00:46:59;9.57;;;4.28;;
14760;SDS011;7472;45.396;5.272;2023-09-19T00:49:28;5.32;;;4.28;;
14760;SDS011;7472;45.396;5.272;2023-09-19T00:51:57;8.75;;;3.40;;
14760;SDS011;7472;45.396;5.272;2023-09-19T00:54:25;9.07;;;3.40;;
14760;SDS011;7472;45.396;5.272;2023-09-19T00:56:53;10.40;;;4.07;;
14760;SDS011;7472;45.396;5.272;2023-09-19T00:59:20;5.80;;;3.40;;
14760;SDS011;7472;45.396;5.272;2023-09-19T01:01:49;6.53;;;3.00;;
14760;SDS011;7472;45.396;5.272;2023-09-19T01:04:19;7.05;;;3.72;;
14760;SDS011;7472;45.396;5.272;2023-09-19T01:06:46;4.43;;;3.47;;
14760;SDS011;7472;45.396;5.272;2023-09-19T01:09:19;6.07;;;3.30;;
14760;SDS011;7472;45.396;5.272;2023-09-19T01:11:47;10.10;;;3.63;;
14760;SDS011;7472;45.396;5.272;2023-09-19T01:14:18;7.57;;;3.85;;
14760;SDS011;7472;45.396;5.272;2023-09-19T01:16:49;6.80;;;4.18;;
14760;SDS011;7472;45.396;5.272;2023-09-19T01:19:25;7.22;;;4.10;;
14760;SDS011;7472;45.396;5.272;2023-09-19T01:21:57;9.07;;;3.55;;
14760;SDS011;7472;45.396;5.272;2023-09-19T01:24:46;6.97;;;3.47;;
14760;SDS011;7472;45.396;5.272;2023-09-19T01:27:25;14.80;;;4.40;;
14760;SDS011;7472;45.396;5.272;2023-09-19T01:30:07;4.00;;;3.60;;
14760;SDS011;7472;45.396;5.272;2023-09-19T01:32:36;8.98;;;3.40;;
14760;SDS011;7472;45.396;5.272;2023-09-19T01:35:04;6.25;;;3.78;;
14760;SDS011;7472;45.396;5.272;2023-09-19T01:37:31;6.05;;;3.65;;
14760;SDS011;7472;45.396;5.272;2023-09-19T01:40:00;4.25;;;3.35;;
14760;SDS011;7472;45.396;5.272;2023-09-19T01:42:33;8.00;;;3.28;;
14760;SDS011;7472;45.396;5.272;2023-09-19T01:45:03;4.70;;;3.22;;
14760;SDS011;7472;45.396;5.272;2023-09-19T01:47:37;5.28;;;3.65;;
14760;SDS011;7472;45.396;5.272;2023-09-19T01:50:09;5.30;;;3.50;;
14760;SDS011;7472;45.396;5.272;2023-09-19T01:52:39;8.13;;;3.72;;
14760;SDS011;7472;45.396;5.272;2023-09-19T01:55:08;10.75;;;3.78;;
14760;SDS011;7472;45.396;5.272;2023-09-19T01:57:39;5.78;;;3.42;;
14760;SDS011;7472;45.396;5.272;2023-09-19T02:00:09;8.07;;;3.58;;
14760;SDS011;7472;45.396;5.272;2023-09-19T02:02:39;5.80;;;3.30;;
14760;SDS011;7472;45.396;5.272;2023-09-19T02:05:07;4.38;;;2.90;;
14760;SDS011;7472;45.396;5.272;2023-09-19T02:07:34;8.90;;;3.45;;
14760;SDS011;7472;45.396;5.272;2023-09-19T02:10:03;6.03;;;2.88;;
14760;SDS011;7472;45.396;5.272;2023-09-19T02:12:31;7.82;;;3.40;;
14760;SDS011;7472;45.396;5.272;2023-09-19T02:14:59;6.75;;;2.75;;
14760;SDS011;7472;45.396;5.272;2023-09-19T02:17:27;5.53;;;3.45;;
14760;SDS011;7472;45.396;5.272;2023-09-19T02:19:57;7.35;;;3.60;;
14760;SDS011;7472;45.396;5.272;2023-09-19T02:22:26;10.45;;;3.13;;
14760;SDS011;7472;45.396;5.272;2023-09-19T02:24:54;7.35;;;3.00;;
14760;SDS011;7472;45.396;5.272;2023-09-19T02:27:23;5.22;;;3.58;;
14760;SDS011;7472;45.396;5.272;2023-09-19T02:29:51;10.02;;;4.05;;
14760;SDS011;7472;45.396;5.272;2023-09-19T02:32:19;9.13;;;3.10;;
14760;SDS011;7472;45.396;5.272;2023-09-19T02:34:46;8.57;;;3.30;;
14760;SDS011;7472;45.396;5.272;2023-09-19T02:37:17;6.72;;;3.40;;
14760;SDS011;7472;45.396;5.272;2023-09-19T02:39:44;7.28;;;3.30;;
14760;SDS011;7472;45.396;5.272;2023-09-19T02:42:12;8.98;;;3.55;;
14760;SDS011;7472;45.396;5.272;2023-09-19T02:44:40;5.40;;;3.53;;
14760;SDS011;7472;45.396;5.272;2023-09-19T02:47:07;6.43;;;3.25;;
14760;SDS011;7472;45.396;5.272;2023-09-19T02:49:35;6.68;;;3.42;;
14760;SDS011;7472;45.396;5.272;2023-09-19T02:52:02;4.82;;;3.17;;
14760;SDS011;7472;45.396;5.272;2023-09-19T02:54:34;8.90;;;3.38;;
14760;SDS011;7472;45.396;5.272;2023-09-19T02:57:02;5.30;;;2.97;;
14760;SDS011;7472;45.396;5.272;2023-09-19T02:59:32;10.48;;;3.10;;
14760;SDS011;7472;45.396;5.272;2023-09-19T03:02:02;6.20;;;3.30;;
14760;SDS011;7472;45.396;5.272;2023-09-19T03:04:30;8.02;;;3.22;;
14760;SDS011;7472;45.396;5.272;2023-09-19T03:06:58;6.32;;;2.92;;
14760;SDS011;7472;45.396;5.272;2023-09-19T03:09:26;6.38;;;2.88;;
14760;SDS011;7472;45.396;5.272;2023-09-19T03:11:55;5.00;;;3.33;;
14760;SDS011;7472;45.396;5.272;2023-09-19T03:14:22;7.20;;;3.25;;
14760;SDS011;7472;45.396;5.272;2023-09-19T03:16:50;9.35;;;3.47;;
14760;SDS011;7472;45.396;5.272;2023-09-19T03:19:18;8.95;;;3.30;;
14760;SDS011;7472;45.396;5.272;2023-09-19T03:21:46;4.70;;;3.15;;
14760;SDS011;7472;45.396;5.272;2023-09-19T03:24:15;6.57;;;3.60;;
14760;SDS011;7472;45.396;5.272;2023-09-19T03:26:43;8.38;;;2.92;;
14760;SDS011;7472;45.396;5.272;2023-09-19T03:29:13;10.75;;;3.60;;
14760;SDS011;7472;45.396;5.272;2023-09-19T03:31:42;9.73;;;3.22;;
14760;SDS011;7472;45.396;5.272;2023-09-19T03:34:10;6.60;;;3.13;;
14760;SDS011;7472;45.396;5.272;2023-09-19T03:36:37;7.43;;;2.80;;
14760;SDS011;7472;45.396;5.272;2023-09-19T03:39:05;6.10;;;2.75;;
14760;SDS011;7472;45.396;5.272;2023-09-19T03:41:33;6.07;;;3.30;;
14760;SDS011;7472;45.396;5.272;2023-09-19T03:44:01;8.93;;;3.65;;
14760;SDS011;7472;45.396;5.272;2023-09-19T03:46:30;4.65;;;3.10;;
14760;SDS011;7472;45.396;5.272;2023-09-19T03:48:58;6.65;;;3.53;;
14760;SDS011;7472;45.396;5.272;2023-09-19T03:51:25;6.45;;;3.22;;
14760;SDS011;7472;45.396;5.272;2023-09-19T03:53:53;7.40;;;3.33;;
14760;SDS011;7472;45.396;5.272;2023-09-19T03:56:20;13.90;;;3.55;;
14760;SDS011;7472;45.396;5.272;2023-09-19T03:58:47;5.38;;;2.95;;
14760;SDS011;7472;45.396;5.272;2023-09-19T04:01:15;7.90;;;3.03;;
14760;SDS011;7472;45.396;5.272;2023-09-19T04:03:45;5.18;;;3.85;;
14760;SDS011;7472;45.396;5.272;2023-09-19T04:06:13;5.63;;;4.80;;
14760;SDS011;7472;45.396;5.272;2023-09-19T04:08:40;8.32;;;4.75;;
14760;SDS011;7472;45.396;5.272;2023-09-19T04:11:08;4.72;;;4.22;;
14760;SDS011;7472;45.396;5.272;2023-09-19T04:13:35;8.57;;;5.50;;
14760;SDS011;7472;45.396;5.272;2023-09-19T04:16:03;13.10;;;5.10;;
14760;SDS011;7472;45.396;5.272;2023-09-19T04:18:32;7.85;;;4.40;;
14760;SDS011;7472;45.396;5.272;2023-09-19T04:21:04;9.38;;;4.50;;
14760;SDS011;7472;45.396;5.272;2023-09-19T04:23:32;6.95;;;3.80;;
14760;SDS011;7472;45.396;5.272;2023-09-19T04:25:59;4.80;;;3.90;;
14760;SDS011;7472;45.396;5.272;2023-09-19T04:28:29;4.45;;;3.20;;
14760;SDS011;7472;45.396;5.272;2023-09-19T04:30:56;8.13;;;3.92;;
14760;SDS011;7472;45.396;5.272;2023-09-19T04:33:24;7.97;;;3.28;;
14760;SDS011;7472;45.396;5.272;2023-09-19T04:35:53;4.97;;;3.00;;
14760;SDS011;7472;45.396;5.272;2023-09-19T04:38:22;3.53;;;2.45;;
14760;SDS011;7472;45.396;5.272;2023-09-19T04:40:49;2.75;;;2.45;;
14760;SDS011;7472;45.396;5.272;2023-09-19T04:43:17;2.95;;;2.08;;
14760;SDS011;7472;45.396;5.272;2023-09-19T04:45:44;2.05;;;1.42;;
14760;SDS011;7472;45.396;5.272;2023-09-19T04:48:12;2.90;;;1.70;;
14760;SDS011;7472;45.396;5.272;2023-09-19T04:50:41;2.85;;;1.60;;
14760;SDS011;7472;45.396;5.272;2023-09-19T04:53:09;5.55;;;1.70;;
14760;SDS011;7472;45.396;5.272;2023-09-19T04:55:38;1.20;;;1.10;;
14760;SDS011;7472;45.396;5.272;2023-09-19T04:58:05;1.80;;;1.10;;
14760;SDS011;7472;45.396;5.272;2023-09-19T05:00:32;2.58;;;1.30;;
14760;SDS011;7472;45.396;5.272;2023-09-19T05:03:00;4.25;;;0.95;;
14760;SDS011;7472;45.396;5.272;2023-09-19T05:05:29;2.50;;;1.00;;
14760;SDS011;7472;45.396;5.272;2023-09-19T05:07:56;8.25;;;1.40;;
14760;SDS011;7472;45.396;5.272;2023-09-19T05:10:24;3.45;;;1.40;;
14760;SDS011;7472;45.396;5.272;2023-09-19T05:12:54;5.05;;;1.25;;
14760;SDS011;7472;45.396;5.272;2023-09-19T05:15:21;3.30;;;1.50;;
14760;SDS011;7472;45.396;5.272;2023-09-19T05:17:49;4.55;;;1.27;;
14760;SDS011;7472;45.396;5.272;2023-09-19T05:20:17;2.53;;;0.95;;
14760;SDS011;7472;45.396;5.272;2023-09-19T05:22:50;5.45;;;1.13;;
14760;SDS011;7472;45.396;5.272;2023-09-19T05:25:17;1.30;;;1.02;;
14760;SDS011;7472;45.396;5.272;2023-09-19T05:27:45;4.43;;;1.33;;
14760;SDS011;7472;45.396;5.272;2023-09-19T05:30:14;2.85;;;0.90;;
14760;SDS011;7472;45.396;5.272;2023-09-19T05:32:41;3.00;;;0.90;;
14760;SDS011;7472;45.396;5.272;2023-09-19T05:35:09;6.72;;;1.40;;
14760;SDS011;7472;45.396;5.272;2023-09-19T05:37:38;4.53;;;1.08;;
14760;SDS011;7472;45.396;5.272;2023-09-19T05:40:06;4.40;;;1.30;;
14760;SDS011;7472;45.396;5.272;2023-09-19T05:42:37;4.97;;;1.00;;
14760;SDS011;7472;45.396;5.272;2023-09-19T05:45:06;2.42;;;1.13;;
14760;SDS011;7472;45.396;5.272;2023-09-19T05:47:38;3.22;;;1.10;;
14760;SDS011;7472;45.396;5.272;2023-09-19T05:50:09;3.80;;;2.55;;
14760;SDS011;7472;45.396;5.272;2023-09-19T05:52:37;2.35;;;1.92;;
14760;SDS011;7472;45.396;5.272;2023-09-19T05:55:06;7.85;;;2.10;;
14760;SDS011;7472;45.396;5.272;2023-09-19T05:57:34;1.80;;;1.40;;
14760;SDS011;7472;45.396;5.272;2023-09-19T06:00:01;2.58;;;1.10;;
14760;SDS011;7472;45.396;5.272;2023-09-19T06:02:33;4.82;;;1.40;;
14760;SDS011;7472;45.396;5.272;2023-09-19T06:05:02;4.25;;;1.40;;
14760;SDS011;7472;45.396;5.272;2023-09-19T06:07:31;1.67;;;1.25;;
14760;SDS011;7472;45.396;5.272;2023-09-19T06:10:02;6.07;;;1.30;;
14760;SDS011;7472;45.396;5.272;2023-09-19T06:12:31;4.68;;;1.40;;
14760;SDS011;7472;45.396;5.272;2023-09-19T06:15:02;2.83;;;1.40;;
14760;SDS011;7472;45.396;5.272;2023-09-19T06:17:33;3.28;;;1.60;;
14760;SDS011;7472;45.396;5.272;2023-09-19T06:20:05;2.60;;;1.20;;
14760;SDS011;7472;45.396;5.272;2023-09-19T06:22:37;2.55;;;1.20;;
14760;SDS011;7472;45.396;5.272;2023-09-19T06:25:07;2.55;;;1.73;;
14760;SDS011;7472;45.396;5.272;2023-09-19T06:27:36;2.38;;;1.30;;
14760;SDS011;7472;45.396;5.272;2023-09-19T06:30:05;2.95;;;1.52;;
14760;SDS011;7472;45.396;5.272;2023-09-19T06:32:34;3.40;;;1.67;;
14760;SDS011;7472;45.396;5.272;2023-09-19T06:35:01;6.97;;;1.58;;
14760;SDS011;7472;45.396;5.272;2023-09-19T06:37:35;1.98;;;1.08;;
14760;SDS011;7472;45.396;5.272;2023-09-19T06:40:04;3.80;;;1.77;;
14760;SDS011;7472;45.396;5.272;2023-09-19T06:42:31;1.45;;;1.05;;
14760;SDS011;7472;45.396;5.272;2023-09-19T06:44:59;2.28;;;1.40;;
14760;SDS011;7472;45.396;5.272;2023-09-19T06:47:26;4.95;;;1.80;;
14760;SDS011;7472;45.396;5.272;2023-09-19T06:49:53;2.03;;;1.13;;
14760;SDS011;7472;45.396;5.272;2023-09-19T06:52:21;4.05;;;1.70;;
14760;SDS011;7472;45.396;5.272;2023-09-19T06:54:49;2.13;;;1.63;;
14760;SDS011;7472;45.396;5.272;2023-09-19T06:57:17;3.58;;;1.20;;
14760;SDS011;7472;45.396;5.272;2023-09-19T06:59:45;3.45;;;1.15;;
14760;SDS011;7472;45.396;5.272;2023-09-19T07:02:12;3.40;;;1.05;;
14760;SDS011;7472;45.396;5.272;2023-09-19T07:04:40;6.30;;;1.02;;
14760;SDS011;7472;45.396;5.272;2023-09-19T07:07:07;6.72;;;1.50;;
14760;SDS011;7472;45.396;5.272;2023-09-19T07:09:35;1.92;;;1.25;;
14760;SDS011;7472;45.396;5.272;2023-09-19T07:12:05;1.23;;;0.90;;
14760;SDS011;7472;45.396;5.272;2023-09-19T07:14:32;1.85;;;1.13;;
14760;SDS011;7472;45.396;5.272;2023-09-19T07:17:00;5.03;;;1.10;;
14760;SDS011;7472;45.396;5.272;2023-09-19T07:19:28;3.03;;;1.30;;
14760;SDS011;7472;45.396;5.272;2023-09-19T07:21:56;5.05;;;1.25;;
14760;SDS011;7472;45.396;5.272;2023-09-19T07:24:24;3.42;;;1.25;;
14760;SDS011;7472;45.396;5.272;2023-09-19T07:26:53;3.88;;;1.23;;
14760;SDS011;7472;45.396;5.272;2023-09-19T07:29:22;2.90;;;1.15;;
14760;SDS011;7472;45.396;5.272;2023-09-19T07:31:51;1.92;;;1.00;;
14760;SDS011;7472;45.396;5.272;2023-09-19T07:34:19;2.55;;;1.30;;
14760;SDS011;7472;45.396;5.272;2023-09-19T07:36:48;2.92;;;1.20;;
14760;SDS011;7472;45.396;5.272;2023-09-19T07:39:15;4.65;;;1.40;;
14760;SDS011;7472;45.396;5.272;2023-09-19T07:41:42;7.00;;;1.13;;
14760;SDS011;7472;45.396;5.272;2023-09-19T07:44:10;1.85;;;1.00;;
14760;SDS011;7472;45.396;5.272;2023-09-19T07:46:39;3.63;;;1.25;;
14760;SDS011;7472;45.396;5.272;2023-09-19T07:49:06;2.83;;;1.00;;
14760;SDS011;7472;45.396;5.272;2023-09-19T07:51:34;2.10;;;0.93;;
14760;SDS011;7472;45.396;5.272;2023-09-19T07:54:01;4.38;;;1.40;;
14760;SDS011;7472;45.396;5.272;2023-09-19T07:56:29;2.90;;;1.10;;
14760;SDS011;7472;45.396;5.272;2023-09-19T07:58:57;4.55;;;1.27;;
14760;SDS011;7472;45.396;5.272;2023-09-19T08:01:24;3.17;;;1.15;;
14760;SDS011;7472;45.396;5.272;2023-09-19T08:03:54;5.28;;;1.25;;
14760;SDS011;7472;45.396;5.272;2023-09-19T08:06:21;3.55;;;1.30;;
14760;SDS011;7472;45.396;5.272;2023-09-19T08:08:50;2.85;;;1.42;;
14760;SDS011;7472;45.396;5.272;2023-09-19T08:11:20;3.08;;;1.40;;
14760;SDS011;7472;45.396;5.272;2023-09-19T08:13:49;2.88;;;1.35;;
14760;SDS011;7472;45.396;5.272;2023-09-19T08:16:17;2.08;;;1.08;;
14760;SDS011;7472;45.396;5.272;2023-09-19T08:18:47;1.85;;;1.35;;
14760;SDS011;7472;45.396;5.272;2023-09-19T08:21:21;3.30;;;1.25;;
14760;SDS011;7472;45.396;5.272;2023-09-19T08:23:49;3.08;;;1.50;;
14760;SDS011;7472;45.396;5.272;2023-09-19T08:26:16;2.22;;;1.23;;
14760;SDS011;7472;45.396;5.272;2023-09-19T08:28:44;3.10;;;1.20;;
14760;SDS011;7472;45.396;5.272;2023-09-19T08:31:13;4.35;;;1.45;;
14760;SDS011;7472;45.396;5.272;2023-09-19T08:33:42;4.40;;;1.30;;
14760;SDS011;7472;45.396;5.272;2023-09-19T08:36:14;2.60;;;1.30;;
14760;SDS011;7472;45.396;5.272;2023-09-19T08:38:42;4.38;;;1.42;;
14760;SDS011;7472;45.396;5.272;2023-09-19T08:41:10;4.38;;;1.40;;
14760;SDS011;7472;45.396;5.272;2023-09-19T08:43:37;3.88;;;1.48;;
14760;SDS011;7472;45.396;5.272;2023-09-19T08:46:07;2.67;;;1.23;;
14760;SDS011;7472;45.396;5.272;2023-09-19T08:48:36;3.88;;;1.25;;
14760;SDS011;7472;45.396;5.272;2023-09-19T08:51:06;3.38;;;1.73;;
14760;SDS011;7472;45.396;5.272;2023-09-19T08:53:36;6.50;;;1.60;;
14760;SDS011;7472;45.396;5.272;2023-09-19T08:56:11;1.20;;;1.10;;
14760;SDS011;7472;45.396;5.272;2023-09-19T08:58:42;4.63;;;1.60;;
14760;SDS011;7472;45.396;5.272;2023-09-19T09:01:12;2.55;;;1.20;;
14760;SDS011;7472;45.396;5.272;2023-09-19T09:03:40;4.03;;;1.60;;
14760;SDS011;7472;45.396;5.272;2023-09-19T09:06:13;2.33;;;1.20;;
14760;SDS011;7472;45.396;5.272;2023-09-19T09:08:41;2.75;;;1.50;;
14760;SDS011;7472;45.396;5.272;2023-09-19T09:11:11;3.35;;;1.55;;
14760;SDS011;7472;45.396;5.272;2023-09-19T09:13:39;3.53;;;1.42;;
14760;SDS011;7472;45.396;5.272;2023-09-19T09:16:07;3.10;;;1.35;;
14760;SDS011;7472;45.396;5.272;2023-09-19T09:18:35;3.85;;;1.20;;
14760;SDS011;7472;45.396;5.272;2023-09-19T09:21:02;1.98;;;1.10;;
14760;SDS011;7472;45.396;5.272;2023-09-19T09:23:30;3.33;;;1.50;;
14760;SDS011;7472;45.396;5.272;2023-09-19T09:25:58;2.90;;;1.52;;
14760;SDS011;7472;45.396;5.272;2023-09-19T09:28:29;3.03;;;1.52;;
14760;SDS011;7472;45.396;5.272;2023-09-19T09:30:58;4.00;;;1.40;;
14760;SDS011;7472;45.396;5.272;2023-09-19T09:33:28;5.20;;;1.35;;
14760;SDS011;7472;45.396;5.272;2023-09-19T09:35:56;1.83;;;1.33;;
14760;SDS011;7472;45.396;5.272;2023-09-19T09:38:26;2.25;;;0.98;;
14760;SDS011;7472;45.396;5.272;2023-09-19T09:40:54;1.80;;;1.20;;
14760;SDS011;7472;45.396;5.272;2023-09-19T09:43:31;3.60;;;1.63;;
14760;SDS011;7472;45.396;5.272;2023-09-19T09:46:08;2.35;;;1.35;;
14760;SDS011;7472;45.396;5.272;2023-09-19T09:49:03;3.33;;;1.42;;
14760;SDS011;7472;45.396;5.272;2023-09-19T09:51:51;2.22;;;1.20;;
14760;SDS011;7472;45.396;5.272;2023-09-19T09:54:26;3.05;;;1.63;;
14760;SDS011;7472;45.396;5.272;2023-09-19T09:56:59;3.83;;;1.25;;
14760;SDS011;7472;45.396;5.272;2023-09-19T09:59:46;3.58;;;1.50;;
14760;SDS011;7472;45.396;5.272;2023-09-19T10:02:15;3.03;;;1.63;;
14760;SDS011;7472;45.396;5.272;2023-09-19T10:04:49;3.05;;;1.40;;
14760;SDS011;7472;45.396;5.272;2023-09-19T10:07:28;4.10;;;1.30;;
14760;SDS011;7472;45.396;5.272;2023-09-19T10:10:01;2.75;;;1.30;;
14760;SDS011;7472;45.396;5.272;2023-09-19T10:12:42;2.63;;;1.50;;
14760;SDS011;7472;45.396;5.272;2023-09-19T10:15:11;2.10;;;1.00;;
14760;SDS011;7472;45.396;5.272;2023-09-19T10:17:42;2.75;;;1.63;;
14760;SDS011;7472;45.396;5.272;2023-09-19T10:20:15;4.25;;;1.35;;
14760;SDS011;7472;45.396;5.272;2023-09-19T10:22:59;2.25;;;1.38;;
14760;SDS011;7472;45.396;5.272;2023-09-19T10:25:27;2.85;;;1.20;;
14760;SDS011;7472;45.396;5.272;2023-09-19T10:27:55;1.85;;;1.20;;
14760;SDS011;7472;45.396;5.272;2023-09-19T10:30:26;6.45;;;1.30;;
14760;SDS011;7472;45.396;5.272;2023-09-19T10:32:57;5.25;;;1.35;;
14760;SDS011;7472;45.396;5.272;2023-09-19T10:35:25;5.15;;;1.63;;
14760;SDS011;7472;45.396;5.272;2023-09-19T10:37:54;3.80;;;1.30;;
14760;SDS011;7472;45.396;5.272;2023-09-19T10:40:21;4.85;;;1.58;;
14760;SDS011;7472;45.396;5.272;2023-09-19T10:42:56;5.68;;;1.15;;
14760;SDS011;7472;45.396;5.272;2023-09-19T10:45:29;3.25;;;1.25;;
14760;SDS011;7472;45.396;5.272;2023-09-19T10:47:58;1.58;;;1.10;;
14760;SDS011;7472;45.396;5.272;2023-09-19T10:50:25;3.90;;;1.50;;
14760;SDS011;7472;45.396;5.272;2023-09-19T10:52:56;2.13;;;1.05;;
14760;SDS011;7472;45.396;5.272;2023-09-19T10:55:30;2.13;;;0.93;;
14760;SDS011;7472;45.396;5.272;2023-09-19T10:58:00;3.63;;;1.10;;
14760;SDS011;7472;45.396;5.272;2023-09-19T11:00:54;2.95;;;1.38;;
14760;SDS011;7472;45.396;5.272;2023-09-19T11:03:22;1.65;;;0.90;;
14760;SDS011;7472;45.396;5.272;2023-09-19T11:06:02;2.47;;;0.90;;
14760;SDS011;7472;45.396;5.272;2023-09-19T11:16:41;2.17;;;1.20;;
14760;SDS011;7472;45.396;5.272;2023-09-19T11:22:10;4.20;;;1.08;;
14760;SDS011;7472;45.396;5.272;2023-09-19T11:24:38;5.63;;;1.20;;
14760;SDS011;7472;45.396;5.272;2023-09-19T11:27:12;1.65;;;1.02;;
14760;SDS011;7472;45.396;5.272;2023-09-19T11:29:42;3.10;;;1.10;;
14760;SDS011;7472;45.396;5.272;2023-09-19T11:32:11;3.63;;;1.35;;
14760;SDS011;7472;45.396;5.272;2023-09-19T11:34:43;2.55;;;1.17;;
14760;SDS011;7472;45.396;5.272;2023-09-19T11:40:07;2.25;;;0.98;;
14760;SDS011;7472;45.396;5.272;2023-09-19T11:42:41;3.20;;;1.10;;
14760;SDS011;7472;45.396;5.272;2023-09-19T11:47:56;2.10;;;1.20;;
14760;SDS011;7472;45.396;5.272;2023-09-19T11:50:25;3.75;;;1.13;;
14760;SDS011;7472;45.396;5.272;2023-09-19T11:52:52;2.00;;;1.10;;
14760;SDS011;7472;45.396;5.272;2023-09-19T11:55:20;1.10;;;0.90;;
14760;SDS011;7472;45.396;5.272;2023-09-19T11:57:48;1.75;;;1.02;;
14760;SDS011;7472;45.396;5.272;2023-09-19T12:00:17;1.10;;;0.80;;
14760;SDS011;7472;45.396;5.272;2023-09-19T12:02:46;1.85;;;1.10;;
14760;SDS011;7472;45.396;5.272;2023-09-19T12:05:15;1.30;;;1.05;;
14760;SDS011;7472;45.396;5.272;2023-09-19T12:07:47;1.15;;;0.80;;
14760;SDS011;7472;45.396;5.272;2023-09-19T12:10:14;2.42;;;1.23;;
14760;SDS011;7472;45.396;5.272;2023-09-19T12:12:46;2.00;;;1.00;;
14760;SDS011;7472;45.396;5.272;2023-09-19T12:15:14;2.33;;;1.10;;
14760;SDS011;7472;45.396;5.272;2023-09-19T12:17:42;1.80;;;1.15;;
14760;SDS011;7472;45.396;5.272;2023-09-19T12:20:10;1.17;;;0.95;;
14760;SDS011;7472;45.396;5.272;2023-09-19T12:22:42;1.73;;;1.00;;
14760;SDS011;7472;45.396;5.272;2023-09-19T12:25:10;1.55;;;1.10;;
14760;SDS011;7472;45.396;5.272;2023-09-19T12:27:41;2.83;;;1.13;;
14760;SDS011;7472;45.396;5.272;2023-09-19T12:30:12;1.60;;;1.00;;
14760;SDS011;7472;45.396;5.272;2023-09-19T12:32:40;2.92;;;1.10;;
14760;SDS011;7472;45.396;5.272;2023-09-19T12:35:08;1.15;;;1.00;;
14760;SDS011;7472;45.396;5.272;2023-09-19T12:37:36;1.77;;;0.90;;
14760;SDS011;7472;45.396;5.272;2023-09-19T12:40:06;2.13;;;1.08;;
14760;SDS011;7472;45.396;5.272;2023-09-19T12:42:42;3.25;;;0.90;;
14760;SDS011;7472;45.396;5.272;2023-09-19T12:45:10;1.95;;;1.23;;
14760;SDS011;7472;45.396;5.272;2023-09-19T12:47:40;1.00;;;0.90;;
14760;SDS011;7472;45.396;5.272;2023-09-19T12:50:09;1.70;;;1.38;;
14760;SDS011;7472;45.396;5.272;2023-09-19T12:52:42;2.20;;;1.20;;
14760;SDS011;7472;45.396;5.272;2023-09-19T12:55:23;1.42;;;1.10;;
14760;SDS011;7472;45.396;5.272;2023-09-19T12:58:08;2.05;;;1.00;;
14760;SDS011;7472;45.396;5.272;2023-09-19T13:00:37;1.55;;;1.00;;
14760;SDS011;7472;45.396;5.272;2023-09-19T13:03:14;2.65;;;1.23;;
14760;SDS011;7472;45.396;5.272;2023-09-19T13:05:53;1.35;;;0.80;;
14760;SDS011;7472;45.396;5.272;2023-09-19T13:08:23;1.45;;;1.15;;
14760;SDS011;7472;45.396;5.272;2023-09-19T13:11:06;2.95;;;1.13;;
14760;SDS011;7472;45.396;5.272;2023-09-19T13:13:35;1.63;;;0.80;;
14760;SDS011;7472;45.396;5.272;2023-09-19T13:16:03;2.10;;;1.02;;
14760;SDS011;7472;45.396;5.272;2023-09-19T13:18:41;1.75;;;0.85;;
14760;SDS011;7472;45.396;5.272;2023-09-19T13:21:10;1.55;;;1.10;;
14760;SDS011;7472;45.396;5.272;2023-09-19T13:23:40;2.33;;;1.05;;
14760;SDS011;7472;45.396;5.272;2023-09-19T13:26:10;2.00;;;1.13;;
14760;SDS011;7472;45.396;5.272;2023-09-19T13:28:37;2.08;;;1.20;;
14760;SDS011;7472;45.396;5.272;2023-09-19T13:31:05;1.40;;;0.73;;
14760;SDS011;7472;45.396;5.272;2023-09-19T13:33:33;1.10;;;0.70;;
14760;SDS011;7472;45.396;5.272;2023-09-19T13:36:01;2.13;;;0.88;;
14760;SDS011;7472;45.396;5.272;2023-09-19T13:38:29;2.20;;;1.40;;
14760;SDS011;7472;45.396;5.272;2023-09-19T13:40:57;1.85;;;0.93;;
14760;SDS011;7472;45.396;5.272;2023-09-19T13:43:27;1.30;;;1.20;;
14760;SDS011;7472;45.396;5.272;2023-09-19T13:45:55;2.20;;;1.00;;
14760;SDS011;7472;45.396;5.272;2023-09-19T13:48:23;2.22;;;0.77;;
14760;SDS011;7472;45.396;5.272;2023-09-19T13:50:50;1.23;;;0.90;;
14760;SDS011;7472;45.396;5.272;2023-09-19T13:53:18;4.43;;;1.20;;
14760;SDS011;7472;45.396;5.272;2023-09-19T13:55:46;1.95;;;1.17;;
14760;SDS011;7472;45.396;5.272;2023-09-19T13:58:13;1.42;;;0.73;;
14760;SDS011;7472;45.396;5.272;2023-09-19T14:00:42;0.77;;;0.73;;
14760;SDS011;7472;45.396;5.272;2023-09-19T14:03:11;1.35;;;0.77;;
14760;SDS011;7472;45.396;5.272;2023-09-19T14:05:39;1.83;;;1.10;;
14760;SDS011;7472;45.396;5.272;2023-09-19T14:08:07;2.58;;;1.05;;
14760;SDS011;7472;45.396;5.272;2023-09-19T14:10:34;1.70;;;0.93;;
14760;SDS011;7472;45.396;5.272;2023-09-19T14:13:02;0.70;;;0.70;;
14760;SDS011;7472;45.396;5.272;2023-09-19T14:15:30;2.03;;;0.88;;
14760;SDS011;7472;45.396;5.272;2023-09-19T14:18:01;2.42;;;0.77;;
14760;SDS011;7472;45.396;5.272;2023-09-19T14:20:29;1.55;;;0.93;;
14760;SDS011;7472;45.396;5.272;2023-09-19T14:22:57;2.55;;;1.05;;
14760;SDS011;7472;45.396;5.272;2023-09-19T14:25:25;1.92;;;0.63;;
14760;SDS011;7472;45.396;5.272;2023-09-19T14:27:54;1.88;;;1.10;;
14760;SDS011;7472;45.396;5.272;2023-09-19T14:30:21;1.30;;;0.90;;
14760;SDS011;7472;45.396;5.272;2023-09-19T14:32:49;0.93;;;0.82;;
14760;SDS011;7472;45.396;5.272;2023-09-19T14:35:17;2.33;;;0.88;;
14760;SDS011;7472;45.396;5.272;2023-09-19T14:37:45;1.27;;;1.13;;
14760;SDS011;7472;45.396;5.272;2023-09-19T14:40:12;3.03;;;0.95;;
14760;SDS011;7472;45.396;5.272;2023-09-19T14:42:43;1.05;;;0.85;;
14760;SDS011;7472;45.396;5.272;2023-09-19T14:45:10;2.13;;;1.05;;
14760;SDS011;7472;45.396;5.272;2023-09-19T14:47:40;1.00;;;0.90;;
14760;SDS011;7472;45.396;5.272;2023-09-19T14:50:07;0.85;;;0.68;;
14760;SDS011;7472;45.396;5.272;2023-09-19T14:52:37;1.70;;;0.90;;
14760;SDS011;7472;45.396;5.272;2023-09-19T14:55:05;1.50;;;0.95;;
14760;SDS011;7472;45.396;5.272;2023-09-19T14:57:34;1.27;;;0.90;;
14760;SDS011;7472;45.396;5.272;2023-09-19T15:00:05;2.00;;;1.10;;
14760;SDS011;7472;45.396;5.272;2023-09-19T15:02:37;1.23;;;0.98;;
14760;SDS011;7472;45.396;5.272;2023-09-19T15:05:05;1.13;;;0.75;;
14760;SDS011;7472;45.396;5.272;2023-09-19T15:07:34;1.33;;;0.90;;
14760;SDS011;7472;45.396;5.272;2023-09-19T15:10:04;1.08;;;0.75;;
14760;SDS011;7472;45.396;5.272;2023-09-19T15:12:35;1.65;;;1.08;;
14760;SDS011;7472;45.396;5.272;2023-09-19T15:15:03;2.13;;;1.00;;
14760;SDS011;7472;45.396;5.272;2023-09-19T15:17:33;1.55;;;0.80;;
14760;SDS011;7472;45.396;5.272;2023-09-19T15:20:00;1.60;;;1.00;;
14760;SDS011;7472;45.396;5.272;2023-09-19T15:22:31;1.67;;;0.85;;
14760;SDS011;7472;45.396;5.272;2023-09-19T15:24:59;1.70;;;1.10;;
14760;SDS011;7472;45.396;5.272;2023-09-19T15:27:28;2.70;;;0.75;;
14760;SDS011;7472;45.396;5.272;2023-09-19T15:29:56;1.75;;;0.98;;
14760;SDS011;7472;45.396;5.272;2023-09-19T15:32:24;1.45;;;0.77;;